Time;durP1;ratioP1;P1;durP2;ratioP2;P2;SDS_P1;SDS_P2;PMS_P1;PMS_P2;Temp;Humidity;BMP_temperature;BMP_pressure;BME280_temperature;BME280_humidity;BME280_pressure;Samples;Min_cycle;Max_cycle;Signal;HPM_P1;HPM_P2
2023/09/28 00:01:44;;;;;;;7.55;1.70;;;20.40;71.10;;;;;;5056196;28;20027;-80
2023/09/28 00:04:12;;;;;;;3.35;1.70;;;20.60;70.70;;;;;;5069017;28;20082;-86
2023/09/28 00:06:40;;;;;;;6.88;1.70;;;20.60;70.10;;;;;;5073012;28;20415;-85
2023/09/28 00:09:10;;;;;;;5.10;1.52;;;20.60;68.80;;;;;;5072398;28;20108;-78
2023/09/28 00:11:37;;;;;;;3.97;1.60;;;20.50;67.70;;;;;;5072715;28;20043;-82
2023/09/28 00:14:05;;;;;;;4.10;1.92;;;20.40;67.50;;;;;;5070590;28;20053;-83
2023/09/28 00:16:32;;;;;;;4.75;1.55;;;20.50;67.60;;;;;;5071365;28;20044;-80
2023/09/28 00:19:00;;;;;;;4.35;1.60;;;20.50;67.40;;;;;;5055438;28;20112;-78
2023/09/28 00:21:27;;;;;;;5.85;1.75;;;20.60;68.10;;;;;;5061304;28;20017;-87
2023/09/28 00:23:55;;;;;;;5.28;1.50;;;20.70;68.60;;;;;;5060890;28;20585;-80
2023/09/28 00:26:23;;;;;;;6.90;1.67;;;20.70;67.90;;;;;;5066565;28;20427;-85
2023/09/28 00:28:50;;;;;;;3.15;1.45;;;20.70;68.00;;;;;;5068182;28;20028;-78
2023/09/28 00:31:18;;;;;;;4.05;1.55;;;20.70;67.20;;;;;;5069018;28;20099;-84
2023/09/28 00:33:45;;;;;;;6.82;1.63;;;20.80;67.70;;;;;;5069125;28;20031;-80
2023/09/28 00:36:13;;;;;;;4.18;1.50;;;20.80;67.80;;;;;;5071885;28;20514;-79
2023/09/28 00:38:40;;;;;;;6.60;1.90;;;20.90;67.30;;;;;;5064622;28;20063;-80
2023/09/28 00:41:07;;;;;;;3.50;1.15;;;20.90;66.40;;;;;;5064335;28;20038;-78
2023/09/28 00:43:35;;;;;;;6.32;1.67;;;20.90;66.40;;;;;;5060674;28;20032;-77
2023/09/28 00:46:03;;;;;;;5.72;1.83;;;20.90;66.70;;;;;;5052489;28;20471;-86
2023/09/28 00:48:31;;;;;;;2.95;1.40;;;20.80;67.10;;;;;;5052970;28;20380;-86
2023/09/28 00:51:00;;;;;;;5.35;1.40;;;20.80;66.50;;;;;;5077351;28;20037;-86
2023/09/28 00:53:28;;;;;;;6.60;1.73;;;20.80;66.30;;;;;;5070567;28;20364;-81
2023/09/28 00:55:56;;;;;;;4.18;1.58;;;20.60;64.30;;;;;;5072208;28;20481;-83
2023/09/28 00:58:24;;;;;;;4.50;1.55;;;20.50;65.50;;;;;;5064823;28;20085;-86
2023/09/28 01:00:51;;;;;;;2.85;1.30;;;20.40;65.00;;;;;;5059904;28;20064;-79
2023/09/28 01:03:19;;;;;;;5.57;1.60;;;20.30;65.70;;;;;;5058740;28;20028;-79
2023/09/28 01:05:48;;;;;;;4.00;1.52;;;20.30;66.30;;;;;;5059102;28;20021;-82
2023/09/28 01:08:21;;;;;;;6.68;1.75;;;20.20;66.40;;;;;;5061599;28;20086;-85
2023/09/28 01:10:50;;;;;;;2.30;1.25;;;20.20;66.80;;;;;;5067026;28;20040;-82
2023/09/28 01:13:20;;;;;;;2.63;1.40;;;20.10;66.90;;;;;;5056092;28;20021;-86
2023/09/28 01:15:50;;;;;;;4.82;1.45;;;20.10;67.10;;;;;;5057228;28;20060;-80
2023/09/28 01:18:20;;;;;;;4.65;1.40;;;20.10;67.20;;;;;;5056731;28;20064;-82
2023/09/28 01:20:51;;;;;;;3.95;1.30;;;20.10;67.10;;;;;;5068160;28;20506;-85
2023/09/28 01:23:19;;;;;;;7.78;1.88;;;20.10;67.20;;;;;;5065359;28;20100;-85
2023/09/28 01:25:49;;;;;;;4.40;1.50;;;20.00;66.60;;;;;;5051609;28;20032;-85
2023/09/28 01:28:17;;;;;;;7.70;1.33;;;20.10;66.90;;;;;;5071139;28;20093;-78
2023/09/28 01:30:44;;;;;;;5.03;1.48;;;20.00;67.10;;;;;;5076544;28;20040;-84
2023/09/28 01:33:12;;;;;;;7.38;1.40;;;20.10;67.00;;;;;;5079946;28;20036;-77
2023/09/28 01:35:40;;;;;;;4.75;1.90;;;20.10;67.30;;;;;;5068505;28;20032;-84
2023/09/28 01:38:22;;;;;;;2.67;1.52;;;20.00;66.70;;;;;;5066105;28;20073;-86
2023/09/28 01:40:50;;;;;;;8.00;1.90;;;20.10;66.90;;;;;;5055153;28;20029;-84
2023/09/28 01:43:18;;;;;;;3.13;1.50;;;20.10;66.90;;;;;;5066223;28;20028;-81
2023/09/28 01:45:46;;;;;;;3.20;1.02;;;20.10;66.70;;;;;;5071119;28;20395;-85
2023/09/28 01:48:15;;;;;;;2.28;1.30;;;20.10;66.80;;;;;;5066535;28;20043;-85
2023/09/28 01:50:43;;;;;;;5.68;1.80;;;20.10;66.40;;;;;;5080448;28;20033;-87
2023/09/28 01:53:10;;;;;;;8.68;1.85;;;20.20;67.10;;;;;;5067599;28;20036;-86
2023/09/28 01:55:38;;;;;;;2.95;1.60;;;20.30;66.80;;;;;;5070814;28;20021;-85
2023/09/28 01:58:07;;;;;;;5.50;1.50;;;20.40;66.70;;;;;;5062860;28;20025;-78
2023/09/28 02:00:36;;;;;;;3.95;1.20;;;20.50;65.30;;;;;;5069292;28;20467;-85
2023/09/28 02:03:05;;;;;;;5.72;1.60;;;20.60;64.60;;;;;;5074625;28;20032;-85
2023/09/28 02:05:33;;;;;;;6.18;1.50;;;20.80;65.60;;;;;;5075095;28;20048;-85
2023/09/28 02:08:10;;;;;;;4.75;1.83;;;21.00;65.40;;;;;;5073332;28;20498;-83
2023/09/28 02:10:39;;;;;;;3.53;1.52;;;21.20;64.10;;;;;;5086198;28;20032;-80
2023/09/28 02:13:07;;;;;;;4.55;1.40;;;21.20;63.80;;;;;;5074669;28;20020;-87
2023/09/28 02:15:35;;;;;;;3.47;1.10;;;21.20;64.10;;;;;;5075024;28;20083;-83
2023/09/28 02:18:03;;;;;;;5.55;2.08;;;21.30;64.50;;;;;;5075629;28;20095;-86
2023/09/28 02:20:31;;;;;;;3.70;1.70;;;21.30;63.30;;;;;;5076026;28;20020;-85
2023/09/28 02:22:59;;;;;;;5.32;1.77;;;21.30;63.90;;;;;;5056677;28;20029;-83
2023/09/28 02:25:26;;;;;;;3.85;1.45;;;21.30;63.30;;;;;;5075935;28;20025;-82
2023/09/28 02:27:54;;;;;;;3.35;1.40;;;21.30;62.50;;;;;;5075030;28;20020;-81
2023/09/28 02:30:23;;;;;;;26.30;3.80;;;21.20;63.40;;;;;;5069313;28;20039;-79
2023/09/28 02:32:55;;;;;;;15.70;2.42;;;21.30;63.60;;;;;;5060818;28;20021;-86
2023/09/28 02:35:23;;;;;;;26.20;3.03;;;21.30;63.40;;;;;;5059791;28;20419;-85
2023/09/28 02:37:52;;;;;;;8.15;2.10;;;21.30;63.60;;;;;;5059388;28;20459;-80
2023/09/28 02:40:19;;;;;;;5.88;1.98;;;21.30;62.90;;;;;;5063274;28;20027;-79
2023/09/28 02:42:50;;;;;;;2.85;1.30;;;21.20;63.40;;;;;;5081897;28;20117;-85
2023/09/28 02:45:18;;;;;;;21.52;2.90;;;21.20;63.50;;;;;;5064571;28;20082;-79
2023/09/28 02:47:48;;;;;;;7.10;1.70;;;21.20;63.70;;;;;;5067343;28;20024;-82
2023/09/28 02:50:16;;;;;;;6.95;1.80;;;21.20;63.60;;;;;;5064029;28;20041;-85
2023/09/28 02:52:46;;;;;;;5.38;1.52;;;21.20;63.70;;;;;;5060275;28;20106;-86
2023/09/28 02:55:14;;;;;;;5.05;1.70;;;21.10;63.50;;;;;;5059144;28;20029;-86
2023/09/28 02:57:42;;;;;;;4.03;1.50;;;21.10;63.10;;;;;;5074326;28;20528;-83
2023/09/28 03:02:51;;;;;;;7.30;2.00;;;21.10;63.60;;;;;;5073753;28;20386;-84
2023/09/28 03:05:23;;;;;;;5.95;1.80;;;21.10;63.90;;;;;;5067397;28;20029;-83
2023/09/28 03:07:50;;;;;;;5.43;1.75;;;21.20;63.90;;;;;;5060885;28;20025;-85
2023/09/28 03:10:20;;;;;;;5.07;1.63;;;21.20;63.90;;;;;;5066538;28;20041;-87
2023/09/28 03:12:51;;;;;;;4.78;1.48;;;21.30;63.70;;;;;;5062169;28;20400;-85
2023/09/28 03:15:20;;;;;;;4.85;1.90;;;21.40;63.70;;;;;;5069403;28;20036;-83
2023/09/28 03:17:47;;;;;;;6.60;2.00;;;21.50;63.00;;;;;;5068506;28;20024;-87
2023/09/28 03:20:17;;;;;;;8.95;2.17;;;21.50;62.40;;;;;;5065716;28;20036;-85
2023/09/28 03:22:46;;;;;;;5.15;1.90;;;21.50;62.60;;;;;;5071763;28;20029;-79
2023/09/28 03:25:17;;;;;;;5.47;1.85;;;21.60;62.50;;;;;;5078834;28;20016;-87
2023/09/28 03:27:47;;;;;;;12.95;2.47;;;21.60;62.70;;;;;;5078423;28;20043;-85
2023/09/28 03:30:18;;;;;;;6.30;2.00;;;21.80;62.70;;;;;;5076638;28;20036;-82
2023/09/28 03:32:47;;;;;;;54.45;6.97;;;21.90;60.80;;;;;;5069327;28;20073;-85
2023/09/28 03:35:16;;;;;;;14.13;2.90;;;22.00;61.40;;;;;;5071162;28;20035;-86
2023/09/28 03:37:45;;;;;;;10.90;2.30;;;22.10;61.60;;;;;;5072291;28;20041;-86
2023/09/28 03:40:14;;;;;;;6.07;1.98;;;22.10;60.70;;;;;;5055573;28;20055;-86
2023/09/28 03:42:46;;;;;;;4.10;1.70;;;22.20;60.60;;;;;;5060472;28;20071;-85
2023/09/28 03:45:22;;;;;;;3.80;1.60;;;22.30;59.70;;;;;;5079663;28;20476;-85
2023/09/28 03:47:52;;;;;;;4.20;2.33;;;22.20;59.20;;;;;;5091048;28;20024;-87
2023/09/28 03:50:23;;;;;;;6.85;2.10;;;22.30;60.30;;;;;;5067594;28;20025;-86
2023/09/28 03:52:52;;;;;;;11.68;3.10;;;22.20;60.20;;;;;;5065836;28;20036;-81
2023/09/28 03:55:22;;;;;;;6.95;2.30;;;22.20;60.90;;;;;;5071766;28;20024;-79
2023/09/28 03:57:50;;;;;;;32.80;6.22;;;22.10;60.30;;;;;;5061033;28;20078;-86
2023/09/28 04:00:19;;;;;;;12.50;2.65;;;22.20;60.80;;;;;;5071345;28;20025;-81
2023/09/28 04:02:50;;;;;;;4.50;1.55;;;22.20;60.80;;;;;;5069886;28;20024;-88
2023/09/28 04:05:18;;;;;;;5.45;1.92;;;22.20;60.60;;;;;;5074410;28;20047;-79
2023/09/28 04:07:46;;;;;;;5.43;1.67;;;22.30;60.80;;;;;;5069030;28;20021;-87
2023/09/28 04:10:14;;;;;;;6.68;1.80;;;22.50;60.70;;;;;;5064383;28;20117;-84
2023/09/28 04:12:42;;;;;;;10.52;2.70;;;22.50;60.80;;;;;;5063078;28;20021;-87
2023/09/28 04:15:09;;;;;;;8.85;1.80;;;22.60;59.80;;;;;;5062256;28;20028;-82
2023/09/28 04:17:37;;;;;;;6.57;1.95;;;22.60;60.10;;;;;;5072588;28;20025;-85
2023/09/28 04:20:06;;;;;;;14.88;1.95;;;22.70;59.90;;;;;;5072400;28;20013;-84
2023/09/28 04:22:34;;;;;;;6.82;1.77;;;22.80;59.70;;;;;;5076281;28;20051;-83
2023/09/28 04:25:01;;;;;;;3.83;1.60;;;22.90;59.60;;;;;;5091761;28;20063;-82
2023/09/28 04:27:29;;;;;;;6.13;2.28;;;23.00;58.90;;;;;;5074144;28;20020;-80
2023/09/28 04:29:57;;;;;;;4.47;1.55;;;23.10;58.80;;;;;;5057036;28;20033;-87
2023/09/28 04:32:27;;;;;;;4.68;1.65;;;23.30;58.50;;;;;;5082391;28;20040;-86
2023/09/28 04:34:55;;;;;;;3.00;1.60;;;23.30;57.90;;;;;;5060685;28;20028;-86
2023/09/28 04:37:23;;;;;;;8.70;2.00;;;23.40;57.90;;;;;;5066074;28;20385;-84
2023/09/28 04:39:52;;;;;;;4.45;1.95;;;23.50;58.10;;;;;;5068353;28;20070;-81
2023/09/28 04:42:22;;;;;;;3.78;1.60;;;23.60;58.00;;;;;;5065701;28;20158;-88
2023/09/28 04:44:50;;;;;;;3.10;1.60;;;23.70;57.50;;;;;;5064564;28;20028;-80
2023/09/28 04:47:18;;;;;;;4.35;1.50;;;23.70;57.10;;;;;;5072412;28;20039;-84
2023/09/28 04:49:46;;;;;;;4.68;1.80;;;23.80;56.70;;;;;;5069400;28;20115;-85
2023/09/28 04:52:14;;;;;;;6.70;2.20;;;23.90;56.60;;;;;;5084054;28;20048;-80
2023/09/28 04:54:43;;;;;;;7.13;1.92;;;23.90;55.60;;;;;;5092660;28;20017;-87
2023/09/28 04:57:11;;;;;;;5.68;1.60;;;23.90;55.20;;;;;;5059390;28;20036;-78
2023/09/28 04:59:39;;;;;;;4.88;1.75;;;23.90;55.20;;;;;;5072933;28;20036;-87
2023/09/28 05:02:07;;;;;;;4.10;1.83;;;23.90;55.00;;;;;;5070250;28;20473;-83
2023/09/28 05:04:35;;;;;;;12.18;1.75;;;23.90;55.60;;;;;;5074614;28;20032;-85
2023/09/28 05:07:04;;;;;;;4.65;1.67;;;23.80;55.00;;;;;;5071979;28;20016;-84
2023/09/28 05:09:32;;;;;;;6.28;1.52;;;23.70;54.90;;;;;;5055960;28;20436;-86
2023/09/28 05:12:01;;;;;;;5.47;1.42;;;23.70;55.70;;;;;;5061304;28;20375;-87
2023/09/28 05:14:29;;;;;;;5.68;1.67;;;23.70;56.40;;;;;;5055107;28;20021;-84
2023/09/28 05:16:56;;;;;;;4.70;1.70;;;23.80;56.70;;;;;;5067908;28;20183;-83
2023/09/28 05:19:25;;;;;;;5.60;2.28;;;23.80;56.60;;;;;;5064851;28;20443;-86
2023/09/28 05:21:53;;;;;;;5.35;1.92;;;23.80;56.20;;;;;;5086644;28;20037;-79
2023/09/28 05:24:20;;;;;;;4.93;1.60;;;24.00;56.10;;;;;;5062436;28;20021;-82
2023/09/28 05:26:48;;;;;;;5.05;1.67;;;24.10;55.80;;;;;;5068374;28;20055;-79
2023/09/28 05:29:16;;;;;;;5.38;1.60;;;24.10;56.20;;;;;;5072854;28;20446;-79
2023/09/28 05:31:44;;;;;;;4.43;1.70;;;24.10;55.50;;;;;;5070180;28;20047;-84
2023/09/28 05:34:12;;;;;;;5.50;1.88;;;24.10;55.10;;;;;;5074592;28;20082;-79
2023/09/28 05:36:39;;;;;;;4.45;1.70;;;24.10;55.30;;;;;;5066922;28;20481;-81
2023/09/28 05:39:08;;;;;;;3.83;1.75;;;24.10;55.90;;;;;;5082081;28;20061;-83
2023/09/28 05:41:36;;;;;;;5.07;1.35;;;24.10;55.70;;;;;;5068886;28;20375;-81
2023/09/28 05:44:04;;;;;;;7.00;1.63;;;24.20;55.70;;;;;;5068172;28;20085;-81
2023/09/28 05:46:31;;;;;;;6.70;1.70;;;24.20;55.60;;;;;;5064211;28;20380;-88
2023/09/28 05:48:59;;;;;;;5.38;1.70;;;24.20;55.50;;;;;;5066068;28;20112;-80
2023/09/28 05:51:27;;;;;;;4.55;1.50;;;24.20;54.20;;;;;;5068265;28;20072;-86
2023/09/28 05:53:55;;;;;;;6.57;1.63;;;24.10;54.70;;;;;;5070410;28;20025;-86
2023/09/28 05:56:23;;;;;;;2.63;1.60;;;24.00;54.90;;;;;;5068927;28;20609;-80
2023/09/28 05:58:50;;;;;;;3.45;1.83;;;23.80;55.60;;;;;;5067771;28;20482;-84
2023/09/28 06:01:21;;;;;;;6.18;2.00;;;23.80;55.80;;;;;;5065836;28;20025;-81
2023/09/28 06:03:48;;;;;;;4.07;1.90;;;23.60;56.20;;;;;;5056787;28;20151;-79
2023/09/28 06:06:20;;;;;;;4.28;2.00;;;23.60;55.80;;;;;;5068677;28;20025;-86
2023/09/28 06:08:48;;;;;;;3.78;1.70;;;23.50;56.40;;;;;;5062978;28;20447;-87
2023/09/28 06:11:17;;;;;;;5.88;1.90;;;23.30;56.60;;;;;;5058161;28;20036;-85
2023/09/28 06:13:45;;;;;;;5.93;1.67;;;23.20;56.70;;;;;;5064260;28;20028;-79
2023/09/28 06:16:15;;;;;;;4.47;1.60;;;23.20;57.00;;;;;;5065084;28;20028;-79
2023/09/28 06:18:43;;;;;;;5.60;2.13;;;23.10;57.50;;;;;;5070357;28;20055;-87
2023/09/28 06:21:11;;;;;;;7.80;1.98;;;23.00;57.90;;;;;;5067921;28;20024;-86
2023/09/28 06:23:40;;;;;;;5.47;1.80;;;23.00;58.00;;;;;;5069347;28;20024;-87
2023/09/28 06:26:08;;;;;;;7.20;1.60;;;23.00;58.50;;;;;;5060509;28;20039;-84
2023/09/28 06:28:35;;;;;;;5.50;1.60;;;22.90;58.20;;;;;;5069383;28;20111;-87
2023/09/28 06:31:04;;;;;;;4.80;1.70;;;22.90;58.40;;;;;;5061299;28;20032;-88
2023/09/28 06:33:32;;;;;;;4.15;1.58;;;22.80;58.60;;;;;;5061965;28;20082;-83
2023/09/28 06:35:59;;;;;;;3.75;1.55;;;22.80;58.30;;;;;;5061657;28;20491;-85
2023/09/28 06:38:27;;;;;;;4.80;2.10;;;22.80;58.70;;;;;;5055474;28;20044;-85
2023/09/28 06:40:55;;;;;;;6.85;1.75;;;22.70;58.90;;;;;;5061175;28;20046;-86
2023/09/28 06:43:22;;;;;;;4.65;1.88;;;22.70;59.00;;;;;;5072694;28;20082;-86
2023/09/28 06:45:50;;;;;;;9.15;2.80;;;22.70;59.20;;;;;;5070619;28;20040;-86
2023/09/28 06:48:18;;;;;;;7.35;3.10;;;22.60;59.10;;;;;;5068428;28;20398;-86
2023/09/28 06:50:46;;;;;;;8.23;2.30;;;22.60;59.10;;;;;;5063307;28;20041;-86
2023/09/28 06:53:15;;;;;;;6.50;1.88;;;22.50;59.50;;;;;;5057957;28;20071;-87
2023/09/28 06:55:44;;;;;;;3.60;1.73;;;22.40;59.60;;;;;;5067680;28;20111;-87
2023/09/28 06:58:14;;;;;;;5.90;1.98;;;22.30;59.60;;;;;;5055815;28;20110;-85
2023/09/28 07:00:45;;;;;;;7.47;2.03;;;22.20;60.10;;;;;;5066695;28;20016;-88
2023/09/28 07:03:13;;;;;;;6.03;2.20;;;22.10;60.30;;;;;;5061698;28;20032;-88
2023/09/28 07:05:42;;;;;;;6.40;1.80;;;22.10;60.70;;;;;;5072871;28;20539;-85
2023/09/28 07:08:10;;;;;;;5.32;1.70;;;21.90;60.70;;;;;;5065861;28;20052;-86
2023/09/28 07:10:38;;;;;;;6.05;1.80;;;21.80;61.10;;;;;;5059986;28;20037;-87
2023/09/28 07:13:06;;;;;;;6.97;1.60;;;21.80;61.40;;;;;;5054821;28;20031;-84
2023/09/28 07:15:38;;;;;;;5.63;1.60;;;21.70;61.40;;;;;;5069575;28;20020;-82
2023/09/28 07:18:06;;;;;;;6.20;1.88;;;21.60;61.60;;;;;;5057143;28;20025;-83
2023/09/28 07:20:33;;;;;;;6.03;2.00;;;21.50;61.90;;;;;;5062377;28;20110;-85
2023/09/28 07:23:01;;;;;;;8.68;1.83;;;21.40;62.20;;;;;;5063142;28;20021;-83
2023/09/28 07:25:29;;;;;;;5.72;2.03;;;21.30;62.40;;;;;;5063406;28;20020;-85
2023/09/28 07:27:57;;;;;;;5.78;1.85;;;21.20;62.60;;;;;;5056897;28;20057;-82
2023/09/28 07:30:26;;;;;;;7.93;1.85;;;21.20;62.70;;;;;;5061106;28;20024;-83
2023/09/28 07:32:53;;;;;;;6.18;1.42;;;21.10;63.10;;;;;;5058760;28;20017;-84
2023/09/28 07:35:21;;;;;;;10.15;2.20;;;21.00;63.30;;;;;;5066608;28;20028;-82
2023/09/28 07:37:48;;;;;;;5.25;1.63;;;20.90;63.70;;;;;;5064594;28;20542;-87
2023/09/28 07:40:17;;;;;;;6.13;1.92;;;20.90;63.90;;;;;;5063226;28;20056;-84
2023/09/28 07:42:45;;;;;;;4.40;1.67;;;20.80;64.20;;;;;;5058477;28;20499;-79
2023/09/28 07:45:14;;;;;;;5.60;1.70;;;20.80;64.50;;;;;;5062341;28;20040;-89
2023/09/28 07:47:42;;;;;;;8.90;2.53;;;20.80;64.70;;;;;;5065246;28;20262;-83
2023/09/28 07:50:11;;;;;;;7.55;3.00;;;20.80;65.00;;;;;;5070836;28;20094;-87
2023/09/28 07:52:39;;;;;;;5.88;2.35;;;20.70;65.20;;;;;;5051408;28;20029;-87
2023/09/28 07:55:11;;;;;;;7.35;2.53;;;20.70;65.10;;;;;;5053244;28;20104;-83
2023/09/28 07:57:39;;;;;;;4.20;2.28;;;20.70;65.40;;;;;;5053443;28;20086;-86
2023/09/28 08:00:07;;;;;;;7.35;2.53;;;20.60;65.70;;;;;;5054786;28;20492;-86
2023/09/28 08:02:37;;;;;;;6.25;2.97;;;20.60;65.70;;;;;;5070329;28;20024;-87
2023/09/28 08:05:06;;;;;;;7.03;3.05;;;20.50;66.20;;;;;;5070901;28;20388;-86
2023/09/28 08:07:36;;;;;;;4.53;2.38;;;20.50;66.50;;;;;;5071317;28;20036;-83
2023/09/28 08:10:04;;;;;;;7.70;2.60;;;20.40;66.40;;;;;;5073106;28;20511;-86
2023/09/28 08:12:35;;;;;;;5.57;2.38;;;20.30;66.40;;;;;;5065052;28;20033;-86
2023/09/28 08:15:03;;;;;;;6.93;2.50;;;20.30;66.60;;;;;;5054432;28;20025;-85
2023/09/28 08:17:40;;;;;;;6.75;2.55;;;20.30;66.60;;;;;;5053543;28;20025;-83
2023/09/28 08:20:09;;;;;;;4.55;2.15;;;20.20;66.80;;;;;;5054622;28;20052;-87
2023/09/28 08:22:37;;;;;;;4.70;1.75;;;20.20;67.00;;;;;;5067945;28;20415;-87
2023/09/28 08:25:08;;;;;;;4.47;2.30;;;20.20;67.00;;;;;;5063054;28;20055;-83
2023/09/28 08:27:36;;;;;;;6.63;2.78;;;20.20;67.30;;;;;;5050549;28;20033;-85
2023/09/28 08:30:05;;;;;;;7.45;2.25;;;20.10;67.50;;;;;;5071082;28;20032;-88
2023/09/28 08:32:32;;;;;;;6.07;2.47;;;20.00;67.60;;;;;;5072512;28;20385;-86
2023/09/28 08:35:00;;;;;;;4.40;2.25;;;20.00;67.60;;;;;;5057072;28;20024;-84
2023/09/28 08:37:28;;;;;;;4.40;2.25;;;20.00;67.90;;;;;;5066891;28;20063;-86
2023/09/28 08:39:57;;;;;;;6.35;2.72;;;20.00;68.00;;;;;;5083732;28;20016;-83
2023/09/28 08:42:28;;;;;;;4.45;2.35;;;19.90;67.70;;;;;;5062929;28;20029;-85
2023/09/28 08:45:01;;;;;;;4.32;2.05;;;19.90;68.10;;;;;;5057866;28;20028;-84
2023/09/28 08:47:37;;;;;;;7.65;2.30;;;19.90;68.20;;;;;;5055285;28;20033;-88
2023/09/28 08:50:05;;;;;;;5.72;2.60;;;19.80;67.90;;;;;;5056716;28;20040;-85
2023/09/28 08:52:34;;;;;;;4.25;2.22;;;19.80;67.90;;;;;;5056927;28;20033;-86
2023/09/28 08:55:03;;;;;;;4.65;2.47;;;19.80;68.20;;;;;;5070716;28;20399;-84
2023/09/28 08:57:31;;;;;;;5.28;2.67;;;19.80;68.40;;;;;;5076431;28;20028;-85
2023/09/28 08:59:59;;;;;;;8.35;2.97;;;19.70;68.30;;;;;;5076011;28;20024;-85
2023/09/28 09:02:28;;;;;;;5.00;2.50;;;19.70;68.30;;;;;;5074520;28;20494;-86
2023/09/28 09:04:56;;;;;;;4.50;2.53;;;19.70;68.30;;;;;;5076217;28;20028;-86
2023/09/28 09:07:24;;;;;;;6.78;3.08;;;19.70;68.40;;;;;;5076105;28;20495;-87
2023/09/28 09:09:55;;;;;;;4.25;2.40;;;19.70;68.60;;;;;;5072576;28;20037;-87
2023/09/28 09:12:22;;;;;;;6.13;2.95;;;19.60;68.40;;;;;;5056583;28;20045;-87
2023/09/28 09:14:50;;;;;;;8.77;3.17;;;19.60;68.60;;;;;;5056479;28;20017;-86
2023/09/28 09:17:18;;;;;;;5.07;2.47;;;19.60;68.70;;;;;;5054950;28;20029;-85
2023/09/28 09:19:47;;;;;;;5.60;2.47;;;19.50;69.00;;;;;;5076907;28;20029;-83
2023/09/28 09:22:28;;;;;;;7.90;2.75;;;19.50;69.10;;;;;;5076207;28;20052;-86
2023/09/28 09:24:57;;;;;;;5.35;2.50;;;19.50;69.00;;;;;;5074396;28;20028;-86
2023/09/28 09:27:29;;;;;;;4.70;2.10;;;19.40;69.10;;;;;;5075939;28;20016;-86
2023/09/28 09:30:08;;;;;;;7.50;2.60;;;19.40;69.10;;;;;;5074783;28;20124;-85
2023/09/28 09:32:42;;;;;;;5.95;2.45;;;19.40;69.00;;;;;;5076073;28;20048;-87
2023/09/28 09:35:13;;;;;;;10.27;2.92;;;19.40;69.10;;;;;;5075826;28;20427;-86
2023/09/28 09:37:53;;;;;;;6.53;3.00;;;19.30;69.30;;;;;;5075656;28;20040;-85
2023/09/28 09:40:21;;;;;;;8.75;3.28;;;19.30;69.30;;;;;;5067558;28;20032;-86
2023/09/28 09:42:48;;;;;;;8.75;3.55;;;19.20;69.50;;;;;;5076084;28;20024;-87
2023/09/28 09:45:18;;;;;;;8.95;3.08;;;19.20;69.80;;;;;;5057274;28;20032;-87
2023/09/28 09:47:49;;;;;;;5.72;2.72;;;19.20;69.80;;;;;;5056479;28;20056;-86
2023/09/28 09:50:18;;;;;;;3.80;2.38;;;19.20;70.20;;;;;;5061218;28;20024;-86
2023/09/28 09:52:46;;;;;;;7.28;2.78;;;19.20;70.10;;;;;;5075564;28;20058;-86
2023/09/28 09:55:14;;;;;;;7.45;3.15;;;19.20;70.10;;;;;;5075594;28;20100;-87
2023/09/28 09:57:47;;;;;;;8.80;3.38;;;19.20;70.10;;;;;;5075807;28;20020;-85
2023/09/28 10:00:18;;;;;;;6.28;2.95;;;19.10;70.20;;;;;;5075475;28;20446;-85
2023/09/28 10:02:53;;;;;;;5.15;2.60;;;19.10;70.30;;;;;;5073611;28;20055;-86
2023/09/28 10:05:22;;;;;;;10.23;3.58;;;19.10;70.50;;;;;;5075454;28;20112;-86
2023/09/28 10:07:51;;;;;;;6.50;2.85;;;19.10;70.30;;;;;;5075369;28;20052;-87
2023/09/28 10:10:19;;;;;;;6.28;2.90;;;19.10;70.20;;;;;;5067813;28;20117;-86
2023/09/28 10:12:48;;;;;;;11.02;3.60;;;19.00;70.50;;;;;;5074242;28;20066;-86
2023/09/28 10:15:16;;;;;;;6.60;3.17;;;19.10;70.50;;;;;;5075695;28;20040;-85
2023/09/28 10:17:45;;;;;;;7.43;2.88;;;19.10;70.70;;;;;;5074012;28;20025;-87
2023/09/28 10:20:14;;;;;;;6.35;3.33;;;19.00;70.60;;;;;;5075695;28;20069;-87
2023/09/28 10:22:48;;;;;;;8.00;2.90;;;19.00;70.70;;;;;;5081698;28;20029;-88
2023/09/28 10:25:21;;;;;;;6.57;2.90;;;19.00;70.60;;;;;;5080919;28;20067;-86
2023/09/28 10:27:57;;;;;;;5.90;3.00;;;19.00;70.70;;;;;;5080471;28;20025;-88
2023/09/28 10:30:25;;;;;;;8.90;3.08;;;19.00;70.30;;;;;;5080407;28;20037;-87
2023/09/28 10:32:54;;;;;;;8.90;2.40;;;18.90;70.50;;;;;;5074766;28;20064;-84
2023/09/28 10:35:30;;;;;;;5.70;2.42;;;18.90;70.40;;;;;;5073316;28;20051;-85
2023/09/28 10:38:22;;;;;;;8.00;2.50;;;18.80;70.40;;;;;;5079720;28;20116;-88
2023/09/28 10:41:10;;;;;;;6.03;2.47;;;18.80;70.70;;;;;;5058902;28;20029;-84
2023/09/28 10:43:43;;;;;;;10.30;2.70;;;18.80;70.70;;;;;;5058432;28;20017;-82
2023/09/28 10:46:11;;;;;;;5.95;2.75;;;18.80;70.70;;;;;;5061333;28;20028;-86
2023/09/28 10:48:45;;;;;;;5.65;2.65;;;18.80;70.50;;;;;;5076216;28;20035;-85
2023/09/28 10:51:15;;;;;;;5.60;2.58;;;18.80;70.40;;;;;;5061205;28;20094;-84
2023/09/28 10:53:44;;;;;;;6.40;2.30;;;18.70;70.60;;;;;;5072232;28;20081;-85
2023/09/28 10:56:12;;;;;;;5.80;2.70;;;18.70;71.00;;;;;;5074740;28;20031;-85
2023/09/28 10:58:43;;;;;;;4.43;2.47;;;18.70;70.80;;;;;;5076320;28;20375;-87
2023/09/28 11:01:12;;;;;;;5.07;2.35;;;18.70;71.10;;;;;;5074030;28;20033;-86
2023/09/28 11:03:41;;;;;;;8.70;2.80;;;18.70;71.20;;;;;;5057547;28;20020;-87
2023/09/28 11:06:09;;;;;;;6.28;2.65;;;18.70;71.20;;;;;;5062514;28;20040;-86
2023/09/28 11:08:37;;;;;;;7.90;3.03;;;18.70;71.30;;;;;;5068138;28;20070;-86
2023/09/28 11:11:04;;;;;;;6.18;2.67;;;18.60;71.30;;;;;;5066375;28;20068;-86
2023/09/28 11:13:35;;;;;;;7.28;2.50;;;18.60;71.40;;;;;;5069297;28;20103;-86
2023/09/28 11:16:03;;;;;;;5.97;3.00;;;18.50;71.40;;;;;;5073759;28;20024;-85
2023/09/28 11:18:31;;;;;;;8.40;2.92;;;18.50;71.60;;;;;;5069822;28;20021;-86
2023/09/28 11:21:01;;;;;;;8.60;2.40;;;18.60;71.60;;;;;;5055467;28;20029;-87
2023/09/28 11:23:29;;;;;;;6.18;2.40;;;18.60;71.50;;;;;;5070521;28;20021;-87
2023/09/28 11:25:58;;;;;;;8.00;2.20;;;18.50;71.60;;;;;;5063571;28;20056;-84
2023/09/28 11:28:26;;;;;;;7.55;2.10;;;18.40;71.80;;;;;;5056290;28;20064;-87
2023/09/28 11:31:11;;;;;;;5.38;2.20;;;18.40;71.90;;;;;;5060827;28;20041;-85
2023/09/28 11:33:47;;;;;;;6.35;1.80;;;18.40;72.00;;;;;;5054447;28;20017;-81
2023/09/28 11:36:28;;;;;;;4.80;1.65;;;18.40;72.00;;;;;;5073046;28;20502;-86
2023/09/28 11:38:56;;;;;;;4.97;2.22;;;18.30;72.20;;;;;;5074381;28;20047;-85
2023/09/28 11:41:23;;;;;;;6.63;2.13;;;18.30;72.10;;;;;;5059206;28;20059;-87
2023/09/28 11:44:00;;;;;;;6.78;2.28;;;18.30;72.20;;;;;;5064763;28;20025;-83
2023/09/28 11:46:31;;;;;;;7.18;1.95;;;18.30;72.30;;;;;;5072277;28;20020;-81
2023/09/28 11:49:14;;;;;;;6.22;2.35;;;18.30;72.30;;;;;;5059122;28;20078;-87
2023/09/28 11:51:44;;;;;;;6.28;2.15;;;18.30;72.40;;;;;;5062464;28;20476;-87
2023/09/28 11:54:14;;;;;;;5.53;2.28;;;18.20;72.60;;;;;;5066766;28;20067;-86
2023/09/28 11:56:42;;;;;;;3.72;1.80;;;18.30;72.60;;;;;;5063356;28;20096;-87
2023/09/28 11:59:14;;;;;;;6.97;2.88;;;18.20;72.70;;;;;;5053663;28;20033;-86
2023/09/28 12:01:52;;;;;;;4.32;1.95;;;18.20;72.90;;;;;;5053063;28;20494;-86
2023/09/28 12:04:20;;;;;;;4.47;1.95;;;18.20;72.90;;;;;;5053578;28;20025;-87
2023/09/28 12:06:48;;;;;;;6.75;2.20;;;18.20;73.00;;;;;;5042731;28;20044;-86
2023/09/28 12:09:18;;;;;;;8.48;2.20;;;18.10;73.00;;;;;;5053832;28;20189;-83
2023/09/28 12:11:49;;;;;;;7.50;2.58;;;18.10;73.10;;;;;;5063390;28;20047;-86
2023/09/28 12:14:17;;;;;;;6.22;2.67;;;18.00;73.20;;;;;;5054258;28;20028;-87
2023/09/28 12:16:45;;;;;;;5.65;2.60;;;17.90;73.50;;;;;;5063168;28;20036;-86
2023/09/28 12:19:12;;;;;;;5.60;2.42;;;17.90;73.80;;;;;;5065733;28;20460;-85
2023/09/28 12:21:40;;;;;;;6.97;2.85;;;17.80;74.30;;;;;;5058962;28;20032;-87
2023/09/28 12:24:08;;;;;;;9.10;2.70;;;17.80;74.40;;;;;;5057110;28;20133;-86
2023/09/28 12:26:36;;;;;;;7.57;3.20;;;17.80;74.50;;;;;;5064186;28;20505;-86
2023/09/28 12:29:04;;;;;;;5.97;2.85;;;17.70;74.60;;;;;;5055928;28;20095;-85
2023/09/28 12:31:31;;;;;;;8.35;2.70;;;17.70;74.70;;;;;;5073863;28;20032;-81
2023/09/28 12:34:00;;;;;;;4.28;2.63;;;17.70;75.20;;;;;;5065037;28;20028;-87
2023/09/28 12:36:27;;;;;;;8.07;2.30;;;17.70;75.30;;;;;;5072989;28;20032;-83
2023/09/28 12:38:56;;;;;;;5.35;3.03;;;17.70;75.30;;;;;;5084908;28;20044;-86
2023/09/28 12:41:24;;;;;;;6.18;3.00;;;17.70;75.20;;;;;;5087678;28;20027;-85
2023/09/28 12:43:52;;;;;;;8.05;2.78;;;17.70;75.00;;;;;;5071207;28;20505;-83
2023/09/28 12:46:19;;;;;;;5.75;2.53;;;17.70;75.30;;;;;;5071862;28;20115;-81
2023/09/28 12:48:47;;;;;;;7.63;2.90;;;17.60;75.20;;;;;;5072544;28;20035;-81
2023/09/28 12:51:14;;;;;;;5.15;2.38;;;17.70;75.40;;;;;;5071621;28;20080;-87
2023/09/28 12:53:45;;;;;;;7.80;2.80;;;17.70;75.40;;;;;;5072244;28;20024;-82
2023/09/28 12:56:13;;;;;;;4.90;2.30;;;17.70;75.90;;;;;;5078904;28;20074;-86
2023/09/28 12:58:41;;;;;;;6.00;2.53;;;17.80;75.40;;;;;;5053580;28;20025;-83